Time;durP1;ratioP1;P1;durP2;ratioP2;P2;SDS_P1;SDS_P2;PMS_P1;PMS_P2;Temp;Humidity;BMP_temperature;BMP_pressure;BME280_temperature;BME280_humidity;BME280_pressure;Samples;Min_cycle;Max_cycle;Signal;HPM_P1;HPM_P2
2023/02/12 00:01:31;;;;;;;10.80;9.00;;;;;;;;;;105288;1251;60498;-52
2023/02/12 00:04:00;;;;;;;12.00;9.20;;;;;;;;;;105262;1251;62017;-53
2023/02/12 00:06:28;;;;;;;15.20;10.90;;;;;;;;;;105136;1251;60407;-50
2023/02/12 00:08:56;;;;;;;12.70;10.00;;;;;;;;;;105302;1251;60784;-51
2023/02/12 00:11:25;;;;;;;12.40;9.10;;;;;;;;;;105206;1251;60494;-52
2023/02/12 00:13:53;;;;;;;12.20;8.80;;;;;;;;;;105049;1253;60546;-52
2023/02/12 00:16:25;;;;;;;12.10;8.00;;;;;;;;;;105080;1251;60982;-54
2023/02/12 00:18:53;;;;;;;10.80;7.80;;;;;;;;;;105454;1256;60335;-53
2023/02/12 00:21:22;;;;;;;10.30;7.80;;;;;;;;;;105449;1251;60405;-53
2023/02/12 00:23:49;;;;;;;7.20;6.10;;;;;;;;;;105550;1251;60431;-51
2023/02/12 00:26:18;;;;;;;9.50;6.70;;;;;;;;;;105518;1251;60380;-54
2023/02/12 00:28:46;;;;;;;11.10;6.70;;;;;;;;;;106300;1251;62311;-50
2023/02/12 00:31:15;;;;;;;12.50;7.70;;;;;;;;;;105507;1255;60454;-52
2023/02/12 00:33:44;;;;;;;9.40;7.60;;;;;;;;;;106125;1254;60805;-52
2023/02/12 00:36:17;;;;;;;9.70;7.40;;;;;;;;;;109298;1251;61398;-54
2023/02/12 00:38:45;;;;;;;8.40;6.40;;;;;;;;;;105768;1251;60663;-52
2023/02/12 00:41:13;;;;;;;8.00;6.10;;;;;;;;;;105522;1256;62149;-53
2023/02/12 00:43:41;;;;;;;6.60;4.80;;;;;;;;;;105530;1253;60515;-53
2023/02/12 00:46:09;;;;;;;7.10;6.00;;;;;;;;;;105323;1257;60903;-53
2023/02/12 00:48:37;;;;;;;5.50;4.60;;;;;;;;;;105302;1251;60495;-54
2023/02/12 00:51:05;;;;;;;5.40;4.00;;;;;;;;;;106009;1253;60421;-51
2023/02/12 00:53:33;;;;;;;5.90;4.70;;;;;;;;;;105422;1256;62373;-53
2023/02/12 00:56:01;;;;;;;5.70;4.10;;;;;;;;;;105289;1256;60445;-52
2023/02/12 00:58:29;;;;;;;5.80;5.00;;;;;;;;;;105191;1256;60967;-50
2023/02/12 01:00:59;;;;;;;3.70;3.10;;;;;;;;;;105304;1251;60663;-53
2023/02/12 01:03:30;;;;;;;4.50;2.90;;;;;;;;;;105103;1251;60438;-50
2023/02/12 01:05:59;;;;;;;4.90;3.20;;;;;;;;;;106312;1251;62138;-53
2023/02/12 01:08:29;;;;;;;3.00;2.60;;;;;;;;;;105517;1252;60377;-53
2023/02/12 01:11:01;;;;;;;4.00;2.70;;;;;;;;;;107329;1254;60793;-53
2023/02/12 01:13:30;;;;;;;4.10;2.60;;;;;;;;;;105251;1256;60559;-52
2023/02/12 01:16:13;;;;;;;3.90;2.40;;;;;;;;;;107181;1254;60315;-51
2023/02/12 01:18:41;;;;;;;1.90;1.70;;;;;;;;;;105716;1251;63454;-50
2023/02/12 01:21:17;;;;;;;2.40;2.20;;;;;;;;;;105977;1253;60332;-52
2023/02/12 01:23:45;;;;;;;3.50;1.50;;;;;;;;;;105763;1251;60393;-52
2023/02/12 01:26:14;;;;;;;2.30;1.60;;;;;;;;;;105951;1254;60485;-53
2023/02/12 01:28:42;;;;;;;1.90;1.40;;;;;;;;;;105823;1251;60529;-53
2023/02/12 01:31:12;;;;;;;2.30;1.30;;;;;;;;;;105879;1251;62049;-50
2023/02/12 01:33:41;;;;;;;1.70;1.00;;;;;;;;;;105491;1256;60405;-54
2023/02/12 01:36:10;;;;;;;1.10;0.90;;;;;;;;;;105756;1251;60706;-50
2023/02/12 01:38:39;;;;;;;2.00;1.00;;;;;;;;;;105335;1251;62372;-53
2023/02/12 01:41:09;;;;;;;1.20;1.00;;;;;;;;;;105643;1251;60961;-50
2023/02/12 01:43:38;;;;;;;1.30;0.90;;;;;;;;;;108228;1252;62159;-53
2023/02/12 01:46:06;;;;;;;1.40;1.00;;;;;;;;;;105457;1255;60361;-49
2023/02/12 01:48:39;;;;;;;1.60;0.90;;;;;;;;;;105259;1251;60338;-54
2023/02/12 01:51:08;;;;;;;1.30;1.00;;;;;;;;;;106434;1254;60535;-53
2023/02/12 01:53:37;;;;;;;2.20;1.10;;;;;;;;;;105493;1254;60437;-55
2023/02/12 01:56:05;;;;;;;1.50;1.10;;;;;;;;;;106046;1251;62002;-49
2023/02/12 01:58:35;;;;;;;1.50;1.10;;;;;;;;;;106467;1256;60336;-51
2023/02/12 02:01:04;;;;;;;1.00;0.70;;;;;;;;;;105657;1255;60455;-50
2023/02/12 02:03:34;;;;;;;0.80;0.60;;;;;;;;;;105445;1253;60408;-54
2023/02/12 02:06:05;;;;;;;0.80;0.70;;;;;;;;;;105322;1251;60395;-50
2023/02/12 02:08:33;;;;;;;0.90;0.70;;;;;;;;;;105463;1255;62094;-50
2023/02/12 02:14:31;;;;;;;0.80;0.60;;;;;;;;;;105137;1256;60408;-51
2023/02/12 02:16:36;;;;;;;0.80;0.60;;;;;;;;;;105286;1253;60484;-52
2023/02/12 02:19:32;;;;;;;0.70;0.50;;;;;;;;;;105460;1251;60599;-52
2023/02/12 02:22:06;;;;;;;0.70;0.60;;;;;;;;;;105290;1251;242951;-53
2023/02/12 02:26:40;;;;;;;0.60;0.50;;;;;;;;;;102253;1289;601106;-52
2023/02/12 02:29:13;;;;;;;0.40;0.40;;;;;;;;;;105009;1267;59075;-53
2023/02/12 02:31:44;;;;;;;0.40;0.30;;;;;;;;;;104871;1268;59203;-54
2023/02/12 02:34:17;;;;;;;0.40;0.30;;;;;;;;;;104601;1265;60632;-52
2023/02/12 02:36:54;;;;;;;0.50;0.40;;;;;;;;;;104608;1266;58967;-52
2023/02/12 02:39:31;;;;;;;0.50;0.30;;;;;;;;;;104444;1264;120810;-50
2023/02/12 02:42:06;;;;;;;0.30;0.20;;;;;;;;;;105347;1257;59090;-52
2023/02/12 02:44:43;;;;;;;0.20;0.20;;;;;;;;;;105035;1259;59111;-53
2023/02/12 02:47:11;;;;;;;0.30;0.20;;;;;;;;;;105098;1255;60527;-47
2023/02/12 02:49:41;;;;;;;0.40;0.20;;;;;;;;;;104924;1256;59163;-51
2023/02/12 02:52:11;;;;;;;0.30;0.20;;;;;;;;;;104851;1259;61686;-50
2023/02/12 02:54:41;;;;;;;1.10;0.20;;;;;;;;;;104915;1255;59771;-51
2023/02/12 02:57:12;;;;;;;0.20;0.20;;;;;;;;;;105194;1259;59663;-48
2023/02/12 02:59:42;;;;;;;0.40;0.20;;;;;;;;;;105157;1255;61341;-51
2023/02/12 03:02:15;;;;;;;0.20;0.10;;;;;;;;;;105127;1259;61142;-48
2023/02/12 03:04:44;;;;;;;0.20;0.10;;;;;;;;;;104954;1259;60495;-50
2023/02/12 03:07:13;;;;;;;0.20;0.10;;;;;;;;;;104957;1257;59733;-53
2023/02/12 03:09:46;;;;;;;0.20;0.10;;;;;;;;;;105051;1257;59637;-53
2023/02/12 03:12:16;;;;;;;0.10;0.10;;;;;;;;;;105147;1256;61335;-54
2023/02/12 03:14:45;;;;;;;0.20;0.10;;;;;;;;;;105583;1256;60099;-49
2023/02/12 03:17:15;;;;;;;1.80;0.30;;;;;;;;;;104914;1257;60771;-49
2023/02/12 03:19:49;;;;;;;1.60;0.60;;;;;;;;;;104999;1260;59538;-54
2023/02/12 03:22:18;;;;;;;0.20;0.10;;;;;;;;;;105006;1259;59618;-52
2023/02/12 03:24:47;;;;;;;0.20;0.10;;;;;;;;;;105898;1257;61211;-49
2023/02/12 03:27:16;;;;;;;0.30;0.10;;;;;;;;;;104873;1261;59644;-51
2023/02/12 03:29:44;;;;;;;0.50;0.40;;;;;;;;;;106761;1256;60459;-51
2023/02/12 03:32:35;;;;;;;0.30;0.20;;;;;;;;;;106426;1262;60095;-49
2023/02/12 03:35:13;;;;;;;1.30;0.20;;;;;;;;;;105113;1260;59685;-51
2023/02/12 03:37:47;;;;;;;0.20;0.10;;;;;;;;;;105116;1259;61224;-46
2023/02/12 03:40:16;;;;;;;0.40;0.20;;;;;;;;;;106934;1259;59493;-48
2023/02/12 03:42:50;;;;;;;0.40;0.10;;;;;;;;;;105254;1257;60735;-49
2023/02/12 03:45:34;;;;;;;0.10;0.00;;;;;;;;;;104962;1259;59730;-47
2023/02/12 03:48:07;;;;;;;0.10;0.00;;;;;;;;;;106689;1262;59617;-49
2023/02/12 03:50:37;;;;;;;0.00;0.00;;;;;;;;;;105159;1257;61608;-50
2023/02/12 03:53:05;;;;;;;0.00;0.00;;;;;;;;;;105165;1259;59555;-50
2023/02/12 03:55:35;;;;;;;0.20;0.00;;;;;;;;;;105983;1257;60816;-49
2023/02/12 03:58:03;;;;;;;0.20;0.10;;;;;;;;;;104875;1260;59759;-50
2023/02/12 04:00:31;;;;;;;0.40;0.00;;;;;;;;;;105069;1262;59727;-50
2023/02/12 04:02:59;;;;;;;0.20;0.00;;;;;;;;;;105036;1259;61259;-50
2023/02/12 04:05:27;;;;;;;0.10;0.00;;;;;;;;;;105066;1263;59630;-51
2023/02/12 04:07:55;;;;;;;0.40;0.00;;;;;;;;;;108626;1256;60487;-51
2023/02/12 04:10:31;;;;;;;0.00;0.00;;;;;;;;;;104905;1257;59968;-48
2023/02/12 04:13:29;;;;;;;0.20;0.00;;;;;;;;;;105483;1254;60205;-49
2023/02/12 04:16:13;;;;;;;0.20;0.10;;;;;;;;;;104748;1253;61288;-47
2023/02/12 04:18:43;;;;;;;0.20;0.10;;;;;;;;;;107302;1254;59727;-47
2023/02/12 04:21:12;;;;;;;0.00;0.00;;;;;;;;;;106060;1254;61067;-48
2023/02/12 04:23:59;;;;;;;0.00;0.00;;;;;;;;;;104854;1254;59775;-48
2023/02/12 04:26:35;;;;;;;0.20;0.10;;;;;;;;;;105185;1260;59656;-49
2023/02/12 04:29:22;;;;;;;1.00;0.30;;;;;;;;;;105246;1258;60083;-49
2023/02/12 04:32:08;;;;;;;1.00;0.40;;;;;;;;;;105226;1257;59555;-47
2023/02/12 04:34:37;;;;;;;0.80;0.20;;;;;;;;;;105064;1254;60477;-47
2023/02/12 04:37:10;;;;;;;0.40;0.20;;;;;;;;;;105295;1260;59742;-50
2023/02/12 04:39:38;;;;;;;1.10;0.20;;;;;;;;;;105368;1254;59631;-48
2023/02/12 04:42:06;;;;;;;0.30;0.10;;;;;;;;;;105186;1254;61372;-48
2023/02/12 04:44:37;;;;;;;1.80;0.10;;;;;;;;;;105074;1260;59488;-47
2023/02/12 04:47:05;;;;;;;0.30;0.10;;;;;;;;;;105906;1255;60759;-47
2023/02/12 04:49:34;;;;;;;1.80;0.30;;;;;;;;;;105324;1255;60593;-49
2023/02/12 04:52:02;;;;;;;0.50;0.30;;;;;;;;;;105276;1260;59611;-45
2023/02/12 04:54:30;;;;;;;1.30;0.30;;;;;;;;;;105196;1254;61356;-46
2023/02/12 04:56:58;;;;;;;3.80;1.10;;;;;;;;;;105152;1260;59669;-45
2023/02/12 04:59:25;;;;;;;3.70;0.90;;;;;;;;;;105262;1259;60705;-43
2023/02/12 05:01:53;;;;;;;1.30;0.50;;;;;;;;;;105284;1254;59627;-47
2023/02/12 05:04:21;;;;;;;1.50;0.40;;;;;;;;;;105147;1254;59837;-46
2023/02/12 05:06:49;;;;;;;1.70;0.30;;;;;;;;;;105190;1254;61588;-43
2023/02/12 05:09:18;;;;;;;2.80;0.20;;;;;;;;;;105267;1259;59539;-45
2023/02/12 05:11:47;;;;;;;0.80;0.30;;;;;;;;;;106528;1254;60691;-44
2023/02/12 05:14:15;;;;;;;2.00;0.30;;;;;;;;;;105284;1258;59729;-46
2023/02/12 05:16:44;;;;;;;0.80;0.20;;;;;;;;;;105083;1258;59713;-47
2023/02/12 05:19:14;;;;;;;1.00;0.10;;;;;;;;;;105097;1254;61562;-46
2023/02/12 05:21:42;;;;;;;0.80;0.30;;;;;;;;;;105152;1257;59577;-45
2023/02/12 05:24:10;;;;;;;2.50;0.50;;;;;;;;;;105268;1259;60484;-46
2023/02/12 05:26:38;;;;;;;4.10;0.40;;;;;;;;;;105236;1259;59643;-46
2023/02/12 05:29:07;;;;;;;2.50;0.50;;;;;;;;;;105594;1259;60935;-46
2023/02/12 05:31:35;;;;;;;1.00;0.30;;;;;;;;;;105907;1258;63081;-45
2023/02/12 05:34:03;;;;;;;0.50;0.30;;;;;;;;;;105881;1258;59611;-43
2023/02/12 05:36:31;;;;;;;1.40;0.20;;;;;;;;;;105747;1260;60762;-48
2023/02/12 05:38:59;;;;;;;0.50;0.20;;;;;;;;;;105176;1259;60161;-48
2023/02/12 05:41:27;;;;;;;1.10;0.20;;;;;;;;;;105186;1254;59695;-45
2023/02/12 05:43:55;;;;;;;1.20;0.20;;;;;;;;;;105262;1254;61154;-45
2023/02/12 05:46:23;;;;;;;2.90;0.20;;;;;;;;;;105443;1255;59630;-45
2023/02/12 05:48:51;;;;;;;0.60;0.30;;;;;;;;;;105022;1258;60770;-45
2023/02/12 05:51:20;;;;;;;1.20;0.30;;;;;;;;;;105312;1257;59736;-46
2023/02/12 05:53:49;;;;;;;1.70;0.40;;;;;;;;;;105236;1257;59564;-47
2023/02/12 05:56:18;;;;;;;1.40;0.40;;;;;;;;;;105179;1255;61284;-43
2023/02/12 05:58:46;;;;;;;1.70;0.40;;;;;;;;;;105733;1257;59630;-45
2023/02/12 06:01:18;;;;;;;1.30;0.50;;;;;;;;;;105852;1254;60515;-47
2023/02/12 06:03:46;;;;;;;1.70;0.30;;;;;;;;;;105249;1255;59640;-46
2023/02/12 06:06:15;;;;;;;0.50;0.20;;;;;;;;;;105709;1254;59852;-44
2023/02/12 06:08:46;;;;;;;1.40;0.30;;;;;;;;;;106626;1254;61052;-44
2023/02/12 06:11:14;;;;;;;2.30;0.30;;;;;;;;;;104948;1257;59742;-48
2023/02/12 06:13:43;;;;;;;0.60;0.20;;;;;;;;;;105115;1260;59709;-45
2023/02/12 06:16:30;;;;;;;1.80;0.30;;;;;;;;;;105194;1255;59678;-48
2023/02/12 06:18:59;;;;;;;2.00;0.20;;;;;;;;;;105997;1259;59716;-45
2023/02/12 06:21:27;;;;;;;1.10;0.40;;;;;;;;;;105900;1258;61316;-45
2023/02/12 06:23:55;;;;;;;1.50;0.80;;;;;;;;;;105470;1258;59612;-47
2023/02/12 06:26:25;;;;;;;1.20;0.50;;;;;;;;;;105215;1259;59532;-45
2023/02/12 06:28:53;;;;;;;4.80;0.40;;;;;;;;;;106141;1256;59761;-45
2023/02/12 06:31:28;;;;;;;1.60;0.30;;;;;;;;;;105164;1254;59820;-45
2023/02/12 06:33:57;;;;;;;0.50;0.20;;;;;;;;;;105383;1253;60381;-46
2023/02/12 06:36:25;;;;;;;2.00;0.20;;;;;;;;;;105112;1259;59676;-47
2023/02/12 06:38:52;;;;;;;0.50;0.20;;;;;;;;;;105253;1260;60606;-46
2023/02/12 06:41:21;;;;;;;3.20;0.60;;;;;;;;;;105084;1259;60411;-47
2023/02/12 06:43:50;;;;;;;2.00;0.60;;;;;;;;;;105602;1255;60482;-46
2023/02/12 06:46:18;;;;;;;8.00;3.30;;;;;;;;;;106455;1258;61675;-46
2023/02/12 06:48:46;;;;;;;1.70;0.60;;;;;;;;;;107090;1257;58343;-43
2023/02/12 06:51:15;;;;;;;1.00;0.40;;;;;;;;;;108831;1257;60730;-44
2023/02/12 06:53:44;;;;;;;0.80;0.20;;;;;;;;;;105141;1256;60450;-45
2023/02/12 06:56:12;;;;;;;1.50;0.30;;;;;;;;;;105732;1254;61408;-44
2023/02/12 06:58:41;;;;;;;0.80;0.10;;;;;;;;;;105152;1255;62066;-45
2023/02/12 07:01:18;;;;;;;0.70;0.20;;;;;;;;;;106207;1259;60334;-47
2023/02/12 07:03:48;;;;;;;0.30;0.20;;;;;;;;;;106120;1260;61712;-48
2023/02/12 07:06:16;;;;;;;0.80;0.10;;;;;;;;;;105716;1260;60530;-47
2023/02/12 07:08:44;;;;;;;0.90;0.20;;;;;;;;;;105134;1259;60357;-46
2023/02/12 07:11:12;;;;;;;0.30;0.10;;;;;;;;;;105844;1254;61947;-47
2023/02/12 07:13:40;;;;;;;1.30;0.20;;;;;;;;;;106073;1259;58937;-45
2023/02/12 07:16:17;;;;;;;1.60;0.30;;;;;;;;;;105742;1259;60828;-46
2023/02/12 07:18:47;;;;;;;0.50;0.20;;;;;;;;;;105084;1259;60424;-46
2023/02/12 07:21:15;;;;;;;0.60;0.20;;;;;;;;;;104973;1254;60437;-48
2023/02/12 07:23:47;;;;;;;0.40;0.10;;;;;;;;;;104996;1257;61002;-46
2023/02/12 07:26:19;;;;;;;0.80;0.20;;;;;;;;;;108977;1256;58532;-46
2023/02/12 07:28:48;;;;;;;1.40;0.10;;;;;;;;;;105599;1255;60750;-47
2023/02/12 07:31:17;;;;;;;0.30;0.20;;;;;;;;;;105209;1258;60511;-48
2023/02/12 07:33:54;;;;;;;2.00;0.20;;;;;;;;;;105143;1258;60404;-46
2023/02/12 07:36:24;;;;;;;0.70;0.20;;;;;;;;;;105192;1260;62412;-49
2023/02/12 07:38:52;;;;;;;0.50;0.20;;;;;;;;;;105473;1260;60406;-45
2023/02/12 07:41:21;;;;;;;0.50;0.10;;;;;;;;;;105807;1257;60624;-46
2023/02/12 07:43:53;;;;;;;2.20;0.40;;;;;;;;;;105551;1260;60627;-46
2023/02/12 07:46:22;;;;;;;0.30;0.10;;;;;;;;;;105298;1259;60514;-46
2023/02/12 07:48:50;;;;;;;0.30;0.10;;;;;;;;;;105249;1259;62107;-46
2023/02/12 07:51:19;;;;;;;1.10;0.20;;;;;;;;;;105714;1260;60390;-47
2023/02/12 07:53:47;;;;;;;1.80;0.20;;;;;;;;;;105314;1259;60752;-47
2023/02/12 07:56:18;;;;;;;0.60;0.20;;;;;;;;;;105277;1259;60533;-47
2023/02/12 07:58:47;;;;;;;0.40;0.10;;;;;;;;;;105280;1253;60565;-46
2023/02/12 08:01:29;;;;;;;0.60;0.10;;;;;;;;;;105115;1258;62217;-47
2023/02/12 08:04:04;;;;;;;0.70;0.20;;;;;;;;;;105329;1255;60799;-47
2023/02/12 08:06:33;;;;;;;0.30;0.10;;;;;;;;;;105668;1260;60953;-48
2023/02/12 08:09:02;;;;;;;0.40;0.10;;;;;;;;;;105013;1257;60447;-48
2023/02/12 08:11:30;;;;;;;0.40;0.10;;;;;;;;;;105133;1257;60382;-49
2023/02/12 08:13:59;;;;;;;1.10;0.20;;;;;;;;;;105293;1258;61863;-47
2023/02/12 08:16:28;;;;;;;0.60;0.10;;;;;;;;;;105671;1259;61242;-47
2023/02/12 08:18:56;;;;;;;0.40;0.20;;;;;;;;;;106785;1260;60434;-49
2023/02/12 08:21:41;;;;;;;0.40;0.10;;;;;;;;;;105965;1258;60562;-47
2023/02/12 08:24:09;;;;;;;0.90;0.10;;;;;;;;;;105178;1258;60415;-47
2023/02/12 08:26:38;;;;;;;1.70;0.20;;;;;;;;;;105232;1260;60736;-45
2023/02/12 08:29:07;;;;;;;0.80;0.20;;;;;;;;;;105926;1259;60367;-48
2023/02/12 08:31:37;;;;;;;0.70;0.10;;;;;;;;;;105112;1260;60660;-48
2023/02/12 08:34:05;;;;;;;0.90;0.20;;;;;;;;;;105978;1258;61123;-47
2023/02/12 08:36:38;;;;;;;0.30;0.20;;;;;;;;;;105203;1260;60530;-48
2023/02/12 08:39:06;;;;;;;0.30;0.10;;;;;;;;;;106313;1255;62123;-46
2023/02/12 08:41:41;;;;;;;0.80;0.30;;;;;;;;;;105145;1260;62388;-47
2023/02/12 08:44:09;;;;;;;1.10;0.20;;;;;;;;;;105164;1253;60585;-45
2023/02/12 08:46:37;;;;;;;3.50;0.20;;;;;;;;;;105223;1260;60577;-46
2023/02/12 08:49:08;;;;;;;0.40;0.10;;;;;;;;;;106384;1255;60428;-47
2023/02/12 08:51:38;;;;;;;1.10;0.20;;;;;;;;;;104992;1254;64028;-46
2023/02/12 08:54:06;;;;;;;1.40;0.20;;;;;;;;;;106210;1254;60335;-48
2023/02/12 08:56:34;;;;;;;1.40;0.30;;;;;;;;;;105371;1258;60506;-49
2023/02/12 08:59:03;;;;;;;1.70;0.30;;;;;;;;;;105233;1258;60520;-45
2023/02/12 09:01:32;;;;;;;0.40;0.20;;;;;;;;;;105889;1257;59465;-46
2023/02/12 09:04:00;;;;;;;0.40;0.10;;;;;;;;;;109166;1254;61951;-48
2023/02/12 09:06:28;;;;;;;0.50;0.20;;;;;;;;;;106207;1258;60418;-46
2023/02/12 09:08:56;;;;;;;1.70;0.20;;;;;;;;;;105171;1260;60672;-49
2023/02/12 09:11:29;;;;;;;0.60;0.20;;;;;;;;;;105199;1260;60466;-46
2023/02/12 09:13:58;;;;;;;1.20;0.20;;;;;;;;;;105050;1259;60571;-46
2023/02/12 09:16:27;;;;;;;2.00;0.20;;;;;;;;;;105201;1258;62112;-45
2023/02/12 09:18:55;;;;;;;0.80;0.20;;;;;;;;;;105381;1267;60580;-47
2023/02/12 09:21:23;;;;;;;0.50;0.10;;;;;;;;;;106209;1253;60793;-46
2023/02/12 09:23:51;;;;;;;0.80;0.20;;;;;;;;;;104970;1259;60424;-50
2023/02/12 09:26:20;;;;;;;1.40;0.20;;;;;;;;;;105635;1254;60418;-47
2023/02/12 09:28:53;;;;;;;1.80;0.20;;;;;;;;;;105210;1255;62119;-45
2023/02/12 09:31:25;;;;;;;2.60;0.20;;;;;;;;;;105260;1260;60589;-48
2023/02/12 09:33:54;;;;;;;1.30;0.20;;;;;;;;;;105550;1254;61094;-46
2023/02/12 09:36:22;;;;;;;0.40;0.10;;;;;;;;;;105930;1257;59540;-46
2023/02/12 09:38:50;;;;;;;0.50;0.10;;;;;;;;;;105386;1260;60640;-46
2023/02/12 09:41:20;;;;;;;0.50;0.20;;;;;;;;;;105185;1254;61808;-48
2023/02/12 09:43:57;;;;;;;2.10;0.20;;;;;;;;;;105053;1257;60459;-50
2023/02/12 09:46:28;;;;;;;1.20;0.20;;;;;;;;;;105203;1258;61015;-46
2023/02/12 09:48:56;;;;;;;0.70;0.20;;;;;;;;;;105066;1258;60431;-50
2023/02/12 09:51:25;;;;;;;0.50;0.20;;;;;;;;;;105057;1255;60334;-46
2023/02/12 09:53:59;;;;;;;0.40;0.20;;;;;;;;;;105042;1255;61959;-48
2023/02/12 09:56:27;;;;;;;1.50;0.10;;;;;;;;;;105073;1258;60490;-48
2023/02/12 09:58:58;;;;;;;0.40;0.20;;;;;;;;;;104959;1257;60421;-48
2023/02/12 10:01:28;;;;;;;1.20;0.10;;;;;;;;;;109152;1253;61075;-49
2023/02/12 10:04:00;;;;;;;1.00;0.20;;;;;;;;;;105848;1254;62034;-46
2023/02/12 10:06:30;;;;;;;1.20;0.30;;;;;;;;;;105700;1254;62276;-48
2023/02/12 10:08:59;;;;;;;0.60;0.20;;;;;;;;;;105260;1258;60418;-47
2023/02/12 10:11:47;;;;;;;0.80;0.20;;;;;;;;;;104858;1254;60743;-46
2023/02/12 10:14:36;;;;;;;0.70;0.20;;;;;;;;;;105062;1253;60428;-46
2023/02/12 10:17:18;;;;;;;2.60;0.20;;;;;;;;;;105462;1256;60526;-44
2023/02/12 10:20:16;;;;;;;1.10;0.20;;;;;;;;;;104711;1255;62748;-49
2023/02/12 10:23:03;;;;;;;1.80;0.20;;;;;;;;;;104536;1254;60871;-47
2023/02/12 10:25:31;;;;;;;0.50;0.10;;;;;;;;;;105101;1254;60966;-46
2023/02/12 10:28:01;;;;;;;0.60;0.10;;;;;;;;;;104963;1255;60458;-48
2023/02/12 10:30:47;;;;;;;0.90;0.20;;;;;;;;;;107174;1254;59010;-47
2023/02/12 10:33:17;;;;;;;0.70;0.20;;;;;;;;;;106513;1257;61978;-46
2023/02/12 10:35:49;;;;;;;0.30;0.20;;;;;;;;;;109059;1253;58538;-48
2023/02/12 10:38:21;;;;;;;0.40;0.20;;;;;;;;;;109095;1254;60909;-49
2023/02/12 10:40:54;;;;;;;0.40;0.20;;;;;;;;;;109006;1254;58771;-48
2023/02/12 10:43:21;;;;;;;2.90;0.20;;;;;;;;;;105651;1256;60431;-45
2023/02/12 10:45:49;;;;;;;0.80;0.20;;;;;;;;;;105286;1254;61936;-49
2023/02/12 10:48:17;;;;;;;1.10;0.20;;;;;;;;;;105830;1257;60290;-46
2023/02/12 10:50:55;;;;;;;0.80;0.10;;;;;;;;;;105120;1257;60938;-44
2023/02/12 10:53:52;;;;;;;0.50;0.20;;;;;;;;;;109136;1254;60110;-48
2023/02/12 10:56:20;;;;;;;0.60;0.20;;;;;;;;;;104809;1254;60383;-47
2023/02/12 10:58:48;;;;;;;0.50;0.30;;;;;;;;;;104629;1255;60952;-48
2023/02/12 11:01:16;;;;;;;0.40;0.10;;;;;;;;;;109153;1254;58532;-47
2023/02/12 11:03:44;;;;;;;1.20;0.10;;;;;;;;;;109269;1254;60668;-47
2023/02/12 11:06:22;;;;;;;0.50;0.10;;;;;;;;;;109271;1254;58510;-47
2023/02/12 11:08:50;;;;;;;0.20;0.10;;;;;;;;;;105840;1257;60357;-45
2023/02/12 11:11:30;;;;;;;1.50;0.10;;;;;;;;;;105749;1257;62217;-46
2023/02/12 11:14:01;;;;;;;1.00;0.40;;;;;;;;;;105052;1260;60440;-46
2023/02/12 11:16:33;;;;;;;0.60;0.20;;;;;;;;;;105456;1257;60441;-47
2023/02/12 11:19:03;;;;;;;0.90;0.20;;;;;;;;;;105271;1263;60401;-49
2023/02/12 11:21:31;;;;;;;0.30;0.10;;;;;;;;;;106113;1254;60443;-46
2023/02/12 11:24:18;;;;;;;1.00;0.10;;;;;;;;;;105235;1254;60814;-44
2023/02/12 11:26:46;;;;;;;0.90;0.40;;;;;;;;;;105199;1257;60427;-45
2023/02/12 11:29:23;;;;;;;0.30;0.10;;;;;;;;;;105468;1254;60713;-46
2023/02/12 11:31:58;;;;;;;1.60;0.10;;;;;;;;;;106041;1254;60300;-46
2023/02/12 11:34:26;;;;;;;0.10;0.00;;;;;;;;;;106306;1257;60428;-47
2023/02/12 11:36:55;;;;;;;1.60;0.40;;;;;;;;;;105265;1255;62049;-47
2023/02/12 11:39:25;;;;;;;0.40;0.10;;;;;;;;;;105268;1259;60414;-45
2023/02/12 11:41:54;;;;;;;2.40;0.50;;;;;;;;;;105519;1254;60733;-47
2023/02/12 11:44:25;;;;;;;0.50;0.20;;;;;;;;;;105397;1254;60497;-45
2023/02/12 11:47:07;;;;;;;0.40;0.20;;;;;;;;;;105385;1257;60418;-47
2023/02/12 11:49:59;;;;;;;0.60;0.30;;;;;;;;;;105802;1254;62219;-46
2023/02/12 11:52:34;;;;;;;0.40;0.10;;;;;;;;;;105004;1260;60657;-47
2023/02/12 11:55:01;;;;;;;;;;;;;;;;;;105719;1258;60437;-46
2023/02/12 11:57:42;;;;;;;0.50;0.20;;;;;;;;;;105456;1257;60440;-47
2023/02/12 12:00:13;;;;;;;0.70;0.30;;;;;;;;;;105177;1254;60335;-45
2023/02/12 12:03:00;;;;;;;0.50;0.20;;;;;;;;;;105426;1254;62255;-49
2023/02/12 12:05:30;;;;;;;0.40;0.10;;;;;;;;;;105485;1251;60562;-47
2023/02/12 12:07:59;;;;;;;1.90;0.20;;;;;;;;;;105318;1256;61049;-48
2023/02/12 12:10:30;;;;;;;0.50;0.10;;;;;;;;;;105404;1251;60549;-49
2023/02/12 12:13:00;;;;;;;1.00;0.30;;;;;;;;;;105283;1257;60627;-46
2023/02/12 12:21:22;;;;;;;0.30;0.10;;;;;;;;;;105348;1251;60642;-47
2023/02/12 12:23:52;;;;;;;0.30;0.20;;;;;;;;;;106098;1251;60581;-47
2023/02/12 12:26:21;;;;;;;1.30;0.70;;;;;;;;;;105887;1251;60457;-47
2023/02/12 12:28:54;;;;;;;0.80;0.20;;;;;;;;;;105576;1255;62098;-48
2023/02/12 12:31:24;;;;;;;1.20;0.30;;;;;;;;;;105476;1251;61131;-46
2023/02/12 12:34:02;;;;;;;0.30;0.10;;;;;;;;;;105489;1255;60935;-44
2023/02/12 12:36:40;;;;;;;0.30;0.10;;;;;;;;;;105728;1251;60297;-47
2023/02/12 12:39:16;;;;;;;0.60;0.10;;;;;;;;;;105409;1254;60430;-49
2023/02/12 12:41:48;;;;;;;0.90;0.20;;;;;;;;;;106170;1251;60892;-47
2023/02/12 12:44:19;;;;;;;1.00;0.10;;;;;;;;;;105387;1257;60347;-47
2023/02/12 12:46:49;;;;;;;1.30;0.30;;;;;;;;;;105383;1251;60998;-47
2023/02/12 12:49:30;;;;;;;0.30;0.20;;;;;;;;;;105162;1254;60517;-49
2023/02/12 12:52:21;;;;;;;2.00;0.30;;;;;;;;;;105368;1251;60370;-48
2023/02/12 12:55:09;;;;;;;0.90;0.10;;;;;;;;;;105335;1257;62281;-46
2023/02/12 12:57:45;;;;;;;1.00;0.20;;;;;;;;;;105474;1257;60996;-45
2023/02/12 13:00:15;;;;;;;0.60;0.20;;;;;;;;;;105317;1251;60415;-45
2023/02/12 13:03:05;;;;;;;0.40;0.10;;;;;;;;;;105775;1256;60687;-46
2023/02/12 13:05:42;;;;;;;0.60;0.10;;;;;;;;;;106330;1256;59837;-47
2023/02/12 13:08:29;;;;;;;0.50;0.20;;;;;;;;;;105427;1256;61279;-49
2023/02/12 13:10:58;;;;;;;3.30;0.20;;;;;;;;;;109282;1251;58893;-48
2023/02/12 13:13:33;;;;;;;2.30;0.80;;;;;;;;;;105991;1251;60541;-48
2023/02/12 13:16:10;;;;;;;0.90;0.20;;;;;;;;;;105594;1255;60437;-49
2023/02/12 13:18:44;;;;;;;0.30;0.10;;;;;;;;;;105195;1254;60513;-47
2023/02/12 13:21:24;;;;;;;0.40;0.10;;;;;;;;;;105390;1251;62064;-50
2023/02/12 13:23:59;;;;;;;1.60;0.10;;;;;;;;;;105485;1253;60434;-45
2023/02/12 13:26:30;;;;;;;0.50;0.20;;;;;;;;;;105333;1251;61006;-47
2023/02/12 13:29:12;;;;;;;2.90;0.30;;;;;;;;;;105163;1256;60427;-50
2023/02/12 13:31:43;;;;;;;0.70;0.30;;;;;;;;;;105105;1251;60419;-47
2023/02/12 13:34:12;;;;;;;0.90;0.20;;;;;;;;;;105643;1256;61929;-44
2023/02/12 13:36:40;;;;;;;0.40;0.20;;;;;;;;;;105587;1251;60530;-47
2023/02/12 13:39:27;;;;;;;0.60;0.20;;;;;;;;;;105213;1251;60888;-49
2023/02/12 13:41:58;;;;;;;0.40;0.10;;;;;;;;;;105929;1256;60591;-47
2023/02/12 13:44:31;;;;;;;0.90;0.40;;;;;;;;;;105287;1253;60437;-48
2023/02/12 13:47:02;;;;;;;0.30;0.20;;;;;;;;;;105450;1251;62177;-47
2023/02/12 13:49:34;;;;;;;0.30;0.20;;;;;;;;;;105996;1251;60342;-46
2023/02/12 13:52:02;;;;;;;0.80;0.20;;;;;;;;;;105243;1251;62412;-44
2023/02/12 13:54:30;;;;;;;0.40;0.10;;;;;;;;;;105503;1257;60437;-48
2023/02/12 13:56:59;;;;;;;0.50;0.30;;;;;;;;;;105572;1253;60426;-46
2023/02/12 13:59:33;;;;;;;1.30;0.30;;;;;;;;;;105745;1251;61923;-48
2023/02/12 14:02:02;;;;;;;0.30;0.10;;;;;;;;;;105331;1256;60414;-44
2023/02/12 14:04:31;;;;;;;0.80;0.10;;;;;;;;;;105416;1251;61286;-46
2023/02/12 14:07:00;;;;;;;0.90;0.40;;;;;;;;;;105384;1256;60527;-45
2023/02/12 14:09:31;;;;;;;1.10;0.50;;;;;;;;;;105753;1251;60395;-49
2023/02/12 14:11:59;;;;;;;1.10;0.20;;;;;;;;;;106738;1251;62449;-47
2023/02/12 14:14:28;;;;;;;0.80;0.50;;;;;;;;;;105427;1251;60325;-47
2023/02/12 14:16:56;;;;;;;0.40;0.20;;;;;;;;;;105468;1257;60549;-46
2023/02/12 14:19:40;;;;;;;1.70;0.20;;;;;;;;;;105535;1256;60969;-48
2023/02/12 14:22:26;;;;;;;3.50;0.20;;;;;;;;;;105003;1255;60425;-48
2023/02/12 14:24:55;;;;;;;0.70;0.20;;;;;;;;;;105431;1251;62157;-49
2023/02/12 14:27:40;;;;;;;1.70;0.10;;;;;;;;;;106297;1251;59795;-48
2023/02/12 14:30:08;;;;;;;0.80;0.20;;;;;;;;;;105376;1251;60390;-47
2023/02/12 14:32:56;;;;;;;0.30;0.20;;;;;;;;;;106712;1254;60453;-48
2023/02/12 14:35:31;;;;;;;3.30;0.30;;;;;;;;;;108227;1251;59284;-46
2023/02/12 14:38:01;;;;;;;1.30;0.20;;;;;;;;;;106051;1252;61997;-45
2023/02/12 14:40:29;;;;;;;1.40;0.30;;;;;;;;;;105120;1256;261969;-46
2023/02/12 14:44:17;;;;;;;0.50;0.20;;;;;;;;;;102393;1288;600409;-46
2023/02/12 14:46:50;;;;;;;0.60;0.30;;;;;;;;;;104569;1267;59249;-48
2023/02/12 14:49:25;;;;;;;0.80;0.40;;;;;;;;;;105458;1260;59194;-48
2023/02/12 14:51:53;;;;;;;1.00;0.20;;;;;;;;;;105113;1256;60506;-48
2023/02/12 14:54:40;;;;;;;0.70;0.40;;;;;;;;;;105098;1260;62783;-47
2023/02/12 14:57:10;;;;;;;0.50;0.20;;;;;;;;;;104967;1254;170204;-48
2023/02/12 14:59:39;;;;;;;0.50;0.20;;;;;;;;;;105279;1254;59228;-46
2023/02/12 15:02:07;;;;;;;0.50;0.20;;;;;;;;;;105838;1256;59017;-50
2023/02/12 15:04:36;;;;;;;0.60;0.30;;;;;;;;;;105777;1254;60688;-46
2023/02/12 15:07:07;;;;;;;0.30;0.20;;;;;;;;;;105278;1257;58900;-50